createdAt,value
2022-08-24T00:00:32.728Z,18.40
2022-08-24T00:04:46.873Z,18.30
2022-08-24T00:09:03.692Z,18.20
2022-08-24T00:13:19.185Z,18.20
2022-08-24T00:17:34.309Z,18.20
2022-08-24T00:21:48.438Z,18.10
2022-08-24T00:26:03.348Z,18.10
2022-08-24T00:30:20.835Z,18.00
2022-08-24T00:34:35.767Z,17.90
2022-08-24T00:38:50.594Z,17.90
2022-08-24T00:43:07.354Z,17.80
2022-08-24T00:47:25.410Z,17.80
2022-08-24T00:51:43.333Z,17.80
2022-08-24T00:56:00.640Z,17.70
2022-08-24T01:00:20.079Z,17.70
2022-08-24T01:04:41.111Z,17.70
2022-08-24T01:08:56.804Z,17.70
2022-08-24T01:13:13.644Z,17.60
2022-08-24T01:17:45.410Z,17.60
2022-08-24T01:22:12.248Z,17.60
2022-08-24T01:26:38.746Z,17.50
2022-08-24T01:30:53.084Z,17.50
2022-08-24T01:35:09.761Z,17.40
2022-08-24T01:39:32.973Z,17.40
2022-08-24T01:43:48.672Z,17.30
2022-08-24T01:48:03.190Z,17.30
2022-08-24T01:52:19.644Z,17.30
2022-08-24T01:56:34.754Z,17.30
2022-08-24T02:00:52.098Z,17.30
2022-08-24T02:05:06.876Z,17.20
2022-08-24T02:09:20.976Z,17.10
2022-08-24T02:13:35.649Z,17.10
2022-08-24T02:17:50.974Z,17.10
2022-08-24T02:22:06.195Z,17.00
2022-08-24T02:26:23.354Z,17.00
2022-08-24T02:30:42.729Z,17.00
2022-08-24T02:34:58.293Z,16.90
2022-08-24T02:39:12.740Z,17.00
2022-08-24T02:43:26.917Z,17.00
2022-08-24T02:47:42.317Z,17.00
2022-08-24T02:51:57.888Z,17.00
2022-08-24T02:56:12.248Z,16.90
2022-08-24T03:00:27.961Z,16.90
2022-08-24T03:04:43.441Z,16.90
2022-08-24T03:09:06.217Z,16.80
2022-08-24T03:13:20.366Z,16.90
2022-08-24T03:17:35.043Z,16.90
2022-08-24T03:21:49.120Z,16.90
2022-08-24T03:26:04.451Z,16.90
2022-08-24T03:30:18.701Z,16.80
2022-08-24T03:34:34.488Z,16.70
2022-08-24T03:38:48.418Z,16.60
2022-08-24T03:43:04.429Z,16.50
2022-08-24T03:47:18.919Z,16.60
2022-08-24T03:51:32.843Z,16.60
2022-08-24T03:55:46.702Z,16.50
2022-08-24T04:00:02.089Z,16.50
2022-08-24T04:04:17.199Z,16.60
2022-08-24T04:08:31.750Z,16.50
2022-08-24T04:12:46.404Z,16.50
2022-08-24T04:17:02.298Z,16.50
2022-08-24T04:21:26.564Z,16.60
2022-08-24T04:25:42.530Z,16.60
2022-08-24T04:29:56.416Z,16.70
2022-08-24T04:34:14.967Z,16.90
2022-08-24T04:38:30.027Z,17.20
2022-08-24T04:43:02.744Z,17.70
2022-08-24T04:47:18.829Z,18.30
2022-08-24T04:51:36.712Z,18.90
2022-08-24T04:55:52.382Z,19.80
2022-08-24T05:00:09.560Z,20.60
2022-08-24T05:04:24.391Z,21.50
2022-08-24T05:08:40.936Z,22.50
2022-08-24T05:12:54.977Z,23.50
2022-08-24T05:17:09.262Z,24.40
2022-08-24T05:21:26.039Z,25.40
2022-08-24T05:25:43.956Z,26.30
2022-08-24T05:29:58.440Z,27.20
2022-08-24T05:34:12.518Z,27.80
2022-08-24T05:38:26.420Z,28.10
2022-08-24T05:42:42.175Z,28.10
2022-08-24T05:46:58.204Z,28.10
2022-08-24T05:51:13.392Z,28.50
2022-08-24T05:55:40.935Z,29.10
2022-08-24T05:59:56.445Z,29.30
2022-08-24T06:04:10.233Z,29.30
2022-08-24T06:08:24.704Z,29.40
2022-08-24T06:12:41.630Z,29.70
2022-08-24T06:16:57.716Z,30.30
2022-08-24T06:21:13.995Z,31.20
2022-08-24T06:25:51.479Z,31.90
2022-08-24T06:30:09.672Z,32.30
2022-08-24T06:34:43.774Z,32.90
2022-08-24T06:38:57.738Z,32.90
2022-08-24T06:43:12.467Z,32.90
2022-08-24T06:47:33.969Z,32.60
2022-08-24T06:51:50.998Z,32.50
2022-08-24T06:56:06.444Z,32.80
2022-08-24T07:00:21.753Z,33.10
2022-08-24T07:04:37.245Z,33.40
2022-08-24T07:09:12.551Z,33.80
2022-08-24T07:13:26.565Z,34.60
2022-08-24T07:17:40.951Z,35.10
2022-08-24T07:21:57.953Z,35.40
2022-08-24T07:26:21.414Z,35.80
2022-08-24T07:30:36.694Z,36.10
2022-08-24T07:34:51.407Z,36.30
2022-08-24T07:39:08.023Z,36.40
2022-08-24T07:43:24.928Z,36.30
2022-08-24T07:47:43.252Z,36.60
2022-08-24T07:52:22.410Z,36.90
2022-08-24T07:56:36.768Z,37.10
2022-08-24T08:00:52.530Z,37.40
2022-08-24T08:05:08.522Z,37.50
2022-08-24T08:09:28.276Z,37.90
2022-08-24T08:18:02.808Z,39.00
2022-08-24T08:22:35.370Z,39.50
2022-08-24T08:27:18.298Z,39.60
2022-08-24T08:31:34.262Z,39.60
2022-08-24T08:35:52.367Z,39.80
2022-08-24T08:40:12.441Z,39.80
2022-08-24T08:44:41.125Z,39.40
2022-08-24T08:49:13.283Z,39.30
2022-08-24T08:53:56.784Z,39.50
2022-08-24T08:58:29.698Z,39.00
2022-08-24T09:03:21.750Z,38.60
2022-08-24T09:08:02.385Z,38.60
2022-08-24T09:12:32.454Z,38.90
2022-08-24T09:17:00.706Z,39.00
2022-08-24T09:21:40.532Z,39.40
2022-08-24T09:26:03.447Z,39.90
2022-08-24T09:30:24.782Z,38.90
2022-08-24T09:34:59.739Z,37.80
2022-08-24T09:39:35.892Z,37.50
2022-08-24T09:44:14.277Z,37.50
2022-08-24T09:49:20.174Z,37.70
2022-08-24T09:54:02.036Z,37.80
2022-08-24T09:58:25.349Z,38.60
2022-08-24T10:02:53.899Z,39.30
2022-08-24T10:07:25.147Z,39.60
2022-08-24T10:11:50.402Z,39.80
2022-08-24T10:16:20.180Z,39.70
2022-08-24T10:20:55.531Z,38.60
2022-08-24T10:25:27.803Z,37.60
2022-08-24T10:30:09.088Z,36.80
2022-08-24T10:34:38.702Z,36.90
2022-08-24T10:39:21.520Z,38.10
2022-08-24T10:44:08.742Z,39.10
2022-08-24T10:48:45.107Z,39.30
2022-08-24T10:53:27.410Z,39.40
2022-08-24T10:57:48.566Z,39.30
2022-08-24T11:02:12.544Z,39.10
2022-08-24T11:06:31.950Z,39.30
2022-08-24T11:10:45.770Z,40.10
2022-08-24T11:15:01.494Z,40.10
2022-08-24T11:19:30.199Z,39.60
2022-08-24T11:23:46.094Z,39.00
2022-08-24T11:28:06.620Z,38.60
2022-08-24T11:32:29.194Z,37.70
2022-08-24T11:36:44.047Z,36.40
2022-08-24T11:41:07.862Z,35.70
2022-08-24T11:45:29.878Z,35.40
2022-08-24T11:49:52.943Z,35.10
2022-08-24T11:54:14.760Z,34.90
2022-08-24T11:58:44.263Z,35.20
2022-08-24T12:03:04.383Z,35.40
2022-08-24T12:07:31.661Z,35.30
2022-08-24T12:11:53.022Z,35.00
2022-08-24T12:16:14.257Z,34.30
2022-08-24T12:20:35.693Z,33.40
2022-08-24T12:24:52.475Z,32.70
2022-08-24T12:29:11.172Z,32.20
2022-08-24T12:33:32.631Z,31.90
2022-08-24T12:37:57.432Z,31.70
2022-08-24T12:42:18.219Z,31.30
2022-08-24T12:46:32.488Z,31.00
2022-08-24T12:51:04.111Z,30.50
2022-08-24T12:55:52.362Z,30.10
2022-08-24T13:00:12.074Z,29.80
2022-08-24T13:04:40.482Z,29.80
2022-08-24T13:09:09.368Z,29.80
2022-08-24T13:13:46.209Z,29.60
2022-08-24T13:18:03.621Z,29.40
2022-08-24T13:22:47.775Z,29.30
2022-08-24T13:27:49.675Z,29.10
2022-08-24T13:32:03.979Z,28.90
2022-08-24T13:36:44.979Z,28.80
2022-08-24T13:41:06.617Z,28.90
2022-08-24T13:45:32.580Z,28.80
2022-08-24T14:27:43.466Z,27.30
2022-08-24T14:32:30.036Z,28.40
2022-08-24T14:36:55.025Z,28.40
2022-08-24T14:41:31.530Z,28.50
2022-08-24T14:45:57.406Z,28.50
2022-08-24T14:50:15.766Z,28.60
2022-08-24T14:54:39.785Z,28.80
2022-08-24T14:59:03.641Z,28.90
2022-08-24T15:03:34.072Z,28.80
2022-08-24T15:07:56.915Z,28.70
2022-08-24T15:12:21.452Z,28.60
2022-08-24T15:16:53.249Z,28.40
2022-08-24T15:21:19.211Z,28.40
2022-08-24T15:25:38.314Z,28.30
2022-08-24T15:29:56.165Z,28.30
2022-08-24T15:34:10.431Z,28.30
2022-08-24T15:38:32.760Z,28.40
2022-08-24T15:42:50.947Z,28.40
2022-08-24T15:47:15.746Z,28.40
2022-08-24T15:51:37.748Z,28.50
2022-08-24T15:55:53.802Z,28.40
2022-08-24T16:00:12.918Z,28.40
2022-08-24T16:04:44.074Z,28.40
2022-08-24T16:09:03.728Z,28.30
2022-08-24T16:13:28.345Z,28.30
2022-08-24T16:17:51.086Z,28.30
2022-08-24T16:22:07.946Z,28.20
2022-08-24T16:26:26.377Z,28.20
2022-08-24T16:30:49.998Z,28.20
2022-08-24T16:35:18.956Z,28.20
2022-08-24T16:39:33.421Z,28.30
2022-08-24T16:43:48.007Z,28.50
2022-08-24T16:48:03.501Z,28.60
2022-08-24T16:52:17.628Z,28.60
2022-08-24T16:56:31.385Z,28.70
2022-08-24T17:00:46.058Z,28.70
2022-08-24T17:05:01.397Z,28.80
2022-08-24T17:09:15.173Z,28.70
2022-08-24T17:13:48.397Z,28.60
2022-08-24T17:18:06.465Z,28.50
2022-08-24T17:22:22.892Z,28.20
2022-08-24T17:26:38.107Z,27.90
2022-08-24T17:30:59.487Z,27.60
2022-08-24T17:35:13.495Z,27.40
2022-08-24T17:39:28.853Z,27.30
2022-08-24T17:43:42.912Z,27.10
2022-08-24T17:47:57.110Z,27.00
2022-08-24T17:52:11.195Z,26.90
2022-08-24T17:56:27.651Z,26.70
2022-08-24T18:00:41.797Z,26.60
2022-08-24T18:04:55.692Z,26.50
2022-08-24T18:09:16.431Z,26.40
2022-08-24T18:13:31.638Z,26.30
2022-08-24T18:17:48.078Z,26.20
2022-08-24T18:22:02.273Z,26.10
2022-08-24T18:26:20.131Z,26.00
2022-08-24T18:30:35.952Z,25.90
2022-08-24T18:34:51.253Z,25.80
2022-08-24T18:39:07.253Z,25.70
2022-08-24T18:43:23.326Z,25.60
2022-08-24T18:47:38.984Z,25.50
2022-08-24T18:51:53.024Z,25.30
2022-08-24T18:56:11.818Z,25.20
2022-08-24T19:00:26.621Z,25.10
2022-08-24T19:04:47.250Z,25.00
2022-08-24T19:09:00.981Z,24.90
2022-08-24T19:13:16.135Z,24.80
2022-08-24T19:17:30.205Z,24.70
2022-08-24T19:21:45.466Z,24.60
2022-08-24T19:26:00.267Z,24.60
2022-08-24T19:30:14.875Z,24.50
2022-08-24T19:34:29.708Z,24.40
2022-08-24T19:38:45.258Z,24.30
2022-08-24T19:42:59.346Z,24.30
2022-08-24T19:47:13.662Z,24.20
2022-08-24T19:51:27.768Z,24.10
2022-08-24T19:55:42.818Z,24.00
2022-08-24T19:59:59.717Z,24.00
2022-08-24T20:04:13.617Z,23.90
2022-08-24T20:08:27.375Z,23.80
2022-08-24T20:12:44.589Z,23.70
2022-08-24T20:16:58.660Z,23.70
2022-08-24T20:21:12.671Z,23.60
2022-08-24T20:25:26.406Z,23.50
2022-08-24T20:29:43.026Z,23.40
2022-08-24T20:33:57.251Z,23.30
2022-08-24T20:38:13.181Z,23.30
2022-08-24T20:42:28.751Z,23.30
2022-08-24T20:46:46.740Z,23.20
2022-08-24T20:51:01.619Z,23.10
2022-08-24T20:55:15.773Z,23.10
2022-08-24T20:59:30.416Z,23.00
2022-08-24T21:03:45.778Z,22.90
2022-08-24T21:07:59.683Z,22.90
2022-08-24T21:12:13.511Z,22.80
2022-08-24T21:16:30.931Z,22.90
2022-08-24T21:21:00.795Z,22.80
2022-08-24T21:25:19.033Z,22.80
2022-08-24T21:29:33.399Z,22.80
2022-08-24T21:34:04.892Z,22.80
2022-08-24T21:38:20.818Z,22.70
2022-08-24T21:42:35.149Z,22.70
2022-08-24T21:46:51.864Z,22.70
2022-08-24T21:51:06.210Z,22.50
2022-08-24T21:55:21.548Z,22.50
2022-08-24T21:59:36.082Z,22.40
2022-08-24T22:03:49.996Z,22.40
2022-08-24T22:08:04.501Z,22.30
2022-08-24T22:12:20.047Z,22.30
2022-08-24T22:16:36.884Z,22.20
2022-08-24T22:20:51.637Z,22.20
2022-08-24T22:25:06.363Z,22.10
2022-08-24T22:29:22.481Z,22.00
2022-08-24T22:33:36.809Z,21.90
2022-08-24T22:37:50.883Z,21.80
2022-08-24T22:42:05.155Z,21.70
2022-08-24T22:46:21.579Z,21.70
2022-08-24T22:50:35.464Z,21.60
2022-08-24T22:54:49.687Z,21.50
2022-08-24T22:59:04.503Z,21.50
2022-08-24T23:03:20.093Z,21.40
2022-08-24T23:07:35.590Z,21.40
2022-08-24T23:11:50.720Z,21.40
2022-08-24T23:16:05.909Z,21.30
2022-08-24T23:20:23.723Z,21.30
2022-08-24T23:24:37.879Z,21.30
2022-08-24T23:28:51.722Z,21.30
2022-08-24T23:33:05.626Z,21.30
2022-08-24T23:37:20.881Z,21.30
2022-08-24T23:41:38.232Z,21.20
2022-08-24T23:45:54.955Z,21.20
2022-08-24T23:50:11.303Z,21.10
2022-08-24T23:54:27.128Z,21.20
2022-08-24T23:58:42.018Z,21.10
